Pikesville, MD (21208)

16:35 EST le 06 Mars 2015 (GMT -0500)
Reisterstown Road PLaza | Change Station
CLOSE
Current Station
Stations météorologiques personnelles
Location: Baltimore, MD
Altitude: 476 ft
Stations météo à proximité

Alt. 476 ft 39.36 °N, 76.71 °W | Updated 21 minutes ago

Ciel dégagé
Ciel dégagé
30.9 ° F
Paraît 31 ° F
N
1.0
Vent Variable Vent de OSO
Gusts 3.0 mph

Aujourd'hui
Haut(e) -- | Bas -- ° F
--% Risque de précip.
Hier
Haut(e) -- | Bas -- ° F
Precip. -- pouce
6:32 AM 6:04 PM
Pleine lune, 99% visible
Pression 30.48 pouce
Visibilité 10.0 Miles terrestres
Nuages Ciel dégagé
Refroidissement éolien 31 ° F
Point de rosée 8 ° F
Humidité 39%
Précipitations pouce
Profondeur de la couche neigeuse Non disponible.
UV 2 sur 12
Pollen 1.10 sur 12
Qualité de l'air Non disponible.
Flu Activity Non disponible.
METAR KBWI 062054Z 23004KT 10SM CLR M03/M14 A3047 RMK AO2 SLP319 T10331144 56025

More Conditions Fewer Conditions

Pression 30.48 pouce
Visibilité 10.0 Miles terrestres
Nuages Ciel dégagé
Refroidissement éolien 31 ° F
Point de rosée 8 ° F
Humidité 39%
Précipitations pouce
Profondeur de la couche neigeuse Non disponible.
UV 2 sur 12
Pollen 1.10 sur 12
Qualité de l'air Non disponible.
Flu Activity Non disponible.
METAR KBWI 062054Z 23004KT 10SM CLR M03/M14 A3047 RMK AO2 SLP319 T10331144 56025

More Conditions Fewer Conditions

10-Day Weather Forecast

Almanac

Astronomie

Mar. 06, 2015 Lever Coucher
Temps réel
Crépuscule civil
Crépuscule nautique
Crépuscule astronomique
Lune
Durée de lumière visible
Longueur du jour
Tomorrow will be .
, % of the Moon is Illuminated

Extrêmes aujourd'hui

State Highs State Lows

Community

WunderPhotos

Upload Photos

1,803,406 Photos téléchargées !

WunderBlogs® & News

Nearby

Qualité de l'air

  Qualité de l'air Indice de la qualité de l'air Polluant
Not available.

Épaisseur de neige

Station Depth Altitude

Activité sismique

Ville Distance Mag. Time & Date
Minimum magnitude displayed is 2.5.

Températures des eaux côtières

Lieu Température

Stations météo à proximité